East Princeton, Massachusetts
Current Conditions -  °F | °C
As of 12:52 PM on Tuesday 21 Oct 2014 (Local Time) from KFIT Reporting Station
Scattered Clouds Scattered Clouds  
Wind Chill: 60°   Ceiling: Unl
Heat Index: 60°   Visibility: 10mi
Dew Point: 49°   Wind: 3mph
Humidity: 67%   Direction: NA
Pressure: 29.95"   Gusts: NA
Location:  42.47°N, 71.84°W
Report Text: KFIT 211652Z AUTO VRB03KT 10SM SCT017 SCT100 16/09 A2995 RMK AO2 SLP143 T01560094
Loading
Personal Weather Stations






























Interactive Weather Map
Tropical Storm Tracking
New forecast layout! Learn more

10-Day Weather Forecast

Advertisements
Track Severe Weather on mobile